sensor_id;sensor_type;location;lat;lon;timestamp;P1;durP1;ratioP1;P2;durP2;ratioP2
72037;SDS011;59900;50.788;12.904;2022-12-07T00:00:52;18.73;;;7.30;;
72037;SDS011;59900;50.788;12.904;2022-12-07T00:03:17;18.20;;;7.77;;
72037;SDS011;59900;50.788;12.904;2022-12-07T00:05:42;16.80;;;7.60;;
72037;SDS011;59900;50.788;12.904;2022-12-07T00:08:07;16.80;;;7.60;;
72037;SDS011;59900;50.788;12.904;2022-12-07T00:10:33;18.40;;;7.80;;
72037;SDS011;59900;50.788;12.904;2022-12-07T00:12:59;20.83;;;8.23;;
72037;SDS011;59900;50.788;12.904;2022-12-07T00:15:24;21.13;;;9.25;;
72037;SDS011;59900;50.788;12.904;2022-12-07T00:17:50;19.83;;;8.40;;
72037;SDS011;59900;50.788;12.904;2022-12-07T00:20:15;19.77;;;8.33;;
72037;SDS011;59900;50.788;12.904;2022-12-07T00:22:40;19.20;;;8.13;;
72037;SDS011;59900;50.788;12.904;2022-12-07T00:25:06;18.70;;;8.43;;
72037;SDS011;59900;50.788;12.904;2022-12-07T00:27:31;17.20;;;7.30;;
72037;SDS011;59900;50.788;12.904;2022-12-07T00:29:56;16.80;;;7.17;;
72037;SDS011;59900;50.788;12.904;2022-12-07T00:32:22;21.03;;;7.90;;
72037;SDS011;59900;50.788;12.904;2022-12-07T00:34:47;18.63;;;7.33;;
72037;SDS011;59900;50.788;12.904;2022-12-07T00:37:12;16.90;;;7.17;;
72037;SDS011;59900;50.788;12.904;2022-12-07T00:39:37;17.33;;;7.47;;
72037;SDS011;59900;50.788;12.904;2022-12-07T00:42:03;15.40;;;7.20;;
72037;SDS011;59900;50.788;12.904;2022-12-07T00:44:28;16.60;;;7.10;;
72037;SDS011;59900;50.788;12.904;2022-12-07T00:46:53;15.70;;;7.30;;
72037;SDS011;59900;50.788;12.904;2022-12-07T00:49:19;16.13;;;6.97;;
72037;SDS011;59900;50.788;12.904;2022-12-07T00:51:44;15.97;;;6.90;;
72037;SDS011;59900;50.788;12.904;2022-12-07T00:54:09;18.43;;;7.17;;
72037;SDS011;59900;50.788;12.904;2022-12-07T00:56:35;15.50;;;7.20;;
72037;SDS011;59900;50.788;12.904;2022-12-07T00:59:01;17.33;;;6.73;;
72037;SDS011;59900;50.788;12.904;2022-12-07T01:01:28;15.85;;;7.20;;
72037;SDS011;59900;50.788;12.904;2022-12-07T01:03:55;14.35;;;6.35;;
72037;SDS011;59900;50.788;12.904;2022-12-07T01:06:22;16.80;;;6.40;;
72037;SDS011;59900;50.788;12.904;2022-12-07T01:08:49;14.93;;;6.93;;
72037;SDS011;59900;50.788;12.904;2022-12-07T01:11:16;17.88;;;7.50;;
72037;SDS011;59900;50.788;12.904;2022-12-07T01:13:43;14.80;;;7.22;;
72037;SDS011;59900;50.788;12.904;2022-12-07T01:16:09;14.70;;;6.60;;
72037;SDS011;59900;50.788;12.904;2022-12-07T01:18:36;15.07;;;6.47;;
72037;SDS011;59900;50.788;12.904;2022-12-07T01:23:29;15.02;;;7.15;;
72037;SDS011;59900;50.788;12.904;2022-12-07T01:25:58;14.65;;;7.30;;
72037;SDS011;59900;50.788;12.904;2022-12-07T01:28:26;15.35;;;6.15;;
72037;SDS011;59900;50.788;12.904;2022-12-07T01:30:55;14.13;;;6.20;;
72037;SDS011;59900;50.788;12.904;2022-12-07T01:33:22;16.83;;;7.05;;
72037;SDS011;59900;50.788;12.904;2022-12-07T01:35:47;13.73;;;6.43;;
72037;SDS011;59900;50.788;12.904;2022-12-07T01:38:12;16.03;;;6.80;;
72037;SDS011;59900;50.788;12.904;2022-12-07T01:40:38;14.87;;;6.90;;
72037;SDS011;59900;50.788;12.904;2022-12-07T01:43:04;13.57;;;5.80;;
72037;SDS011;59900;50.788;12.904;2022-12-07T01:45:40;13.40;;;6.10;;
72037;SDS011;59900;50.788;12.904;2022-12-07T01:48:06;15.93;;;6.85;;
72037;SDS011;59900;50.788;12.904;2022-12-07T01:50:34;13.85;;;6.13;;
72037;SDS011;59900;50.788;12.904;2022-12-07T01:53:01;15.98;;;5.72;;
72037;SDS011;59900;50.788;12.904;2022-12-07T01:55:29;13.80;;;6.23;;
72037;SDS011;59900;50.788;12.904;2022-12-07T01:57:54;13.55;;;5.97;;
72037;SDS011;59900;50.788;12.904;2022-12-07T02:00:21;13.95;;;6.13;;
72037;SDS011;59900;50.788;12.904;2022-12-07T02:03:01;15.10;;;6.68;;
72037;SDS011;59900;50.788;12.904;2022-12-07T02:05:31;13.03;;;6.13;;
72037;SDS011;59900;50.788;12.904;2022-12-07T02:07:59;13.27;;;5.28;;
72037;SDS011;59900;50.788;12.904;2022-12-07T02:10:26;10.18;;;4.72;;
72037;SDS011;59900;50.788;12.904;2022-12-07T02:12:55;11.98;;;5.57;;
72037;SDS011;59900;50.788;12.904;2022-12-07T02:15:26;13.17;;;5.83;;
72037;SDS011;59900;50.788;12.904;2022-12-07T02:18:01;10.35;;;4.95;;
72037;SDS011;59900;50.788;12.904;2022-12-07T02:26:39;11.65;;;6.13;;
72037;SDS011;59900;50.788;12.904;2022-12-07T02:31:59;12.25;;;6.03;;
72037;SDS011;59900;50.788;12.904;2022-12-07T02:34:41;12.50;;;5.95;;
72037;SDS011;59900;50.788;12.904;2022-12-07T02:37:16;13.38;;;6.05;;
72037;SDS011;59900;50.788;12.904;2022-12-07T02:40:06;13.25;;;5.45;;
72037;SDS011;59900;50.788;12.904;2022-12-07T02:42:53;11.90;;;5.57;;
72037;SDS011;59900;50.788;12.904;2022-12-07T02:45:26;12.55;;;5.63;;
72037;SDS011;59900;50.788;12.904;2022-12-07T02:47:56;11.45;;;4.97;;
72037;SDS011;59900;50.788;12.904;2022-12-07T02:50:24;12.88;;;5.00;;
72037;SDS011;59900;50.788;12.904;2022-12-07T02:52:49;11.87;;;5.47;;
72037;SDS011;59900;50.788;12.904;2022-12-07T02:55:15;13.97;;;5.23;;
72037;SDS011;59900;50.788;12.904;2022-12-07T03:00:28;10.55;;;5.03;;
72037;SDS011;59900;50.788;12.904;2022-12-07T03:03:00;8.95;;;4.40;;
72037;SDS011;59900;50.788;12.904;2022-12-07T03:08:30;9.63;;;4.13;;
72037;SDS011;59900;50.788;12.904;2022-12-07T03:11:09;8.32;;;4.18;;
72037;SDS011;59900;50.788;12.904;2022-12-07T03:13:41;11.02;;;4.47;;
72037;SDS011;59900;50.788;12.904;2022-12-07T03:16:09;10.23;;;4.25;;
72037;SDS011;59900;50.788;12.904;2022-12-07T03:18:45;12.20;;;4.63;;
72037;SDS011;59900;50.788;12.904;2022-12-07T03:21:15;11.97;;;4.93;;
72037;SDS011;59900;50.788;12.904;2022-12-07T03:23:44;11.57;;;4.43;;
72037;SDS011;59900;50.788;12.904;2022-12-07T03:26:15;9.40;;;4.20;;
72037;SDS011;59900;50.788;12.904;2022-12-07T03:28:45;9.68;;;4.53;;
72037;SDS011;59900;50.788;12.904;2022-12-07T03:31:21;11.65;;;4.55;;
72037;SDS011;59900;50.788;12.904;2022-12-07T03:33:59;10.00;;;3.97;;
72037;SDS011;59900;50.788;12.904;2022-12-07T03:36:45;11.60;;;3.50;;
72037;SDS011;59900;50.788;12.904;2022-12-07T03:39:29;8.32;;;4.10;;
72037;SDS011;59900;50.788;12.904;2022-12-07T03:42:02;8.23;;;3.80;;
72037;SDS011;59900;50.788;12.904;2022-12-07T03:44:30;9.18;;;3.53;;
72037;SDS011;59900;50.788;12.904;2022-12-07T03:49:43;7.72;;;3.25;;
72037;SDS011;59900;50.788;12.904;2022-12-07T03:57:53;11.50;;;4.05;;
72037;SDS011;59900;50.788;12.904;2022-12-07T04:00:22;8.37;;;4.00;;
72037;SDS011;59900;50.788;12.904;2022-12-07T04:02:48;7.32;;;3.58;;
72037;SDS011;59900;50.788;12.904;2022-12-07T04:05:16;8.80;;;3.63;;
72037;SDS011;59900;50.788;12.904;2022-12-07T04:07:42;8.52;;;3.47;;
72037;SDS011;59900;50.788;12.904;2022-12-07T04:10:07;10.03;;;3.77;;
72037;SDS011;59900;50.788;12.904;2022-12-07T04:12:33;8.17;;;3.67;;
72037;SDS011;59900;50.788;12.904;2022-12-07T04:14:58;6.93;;;3.17;;
72037;SDS011;59900;50.788;12.904;2022-12-07T04:17:23;8.33;;;3.60;;
72037;SDS011;59900;50.788;12.904;2022-12-07T04:19:48;9.97;;;3.30;;
72037;SDS011;59900;50.788;12.904;2022-12-07T04:22:14;6.47;;;3.30;;
72037;SDS011;59900;50.788;12.904;2022-12-07T04:24:39;8.07;;;3.87;;
72037;SDS011;59900;50.788;12.904;2022-12-07T04:27:04;6.30;;;3.07;;
72037;SDS011;59900;50.788;12.904;2022-12-07T04:29:30;8.10;;;2.97;;
72037;SDS011;59900;50.788;12.904;2022-12-07T04:31:55;6.77;;;3.83;;
72037;SDS011;59900;50.788;12.904;2022-12-07T04:34:20;8.47;;;2.90;;
72037;SDS011;59900;50.788;12.904;2022-12-07T04:36:46;6.33;;;3.30;;
72037;SDS011;59900;50.788;12.904;2022-12-07T04:39:28;5.30;;;2.53;;
72037;SDS011;59900;50.788;12.904;2022-12-07T04:41:55;8.27;;;3.60;;
72037;SDS011;59900;50.788;12.904;2022-12-07T04:44:22;6.28;;;3.08;;
72037;SDS011;59900;50.788;12.904;2022-12-07T04:46:49;7.57;;;3.10;;
72037;SDS011;59900;50.788;12.904;2022-12-07T04:49:14;6.47;;;3.03;;
72037;SDS011;59900;50.788;12.904;2022-12-07T04:51:41;8.33;;;3.23;;
72037;SDS011;59900;50.788;12.904;2022-12-07T04:54:06;8.20;;;3.00;;
72037;SDS011;59900;50.788;12.904;2022-12-07T04:56:32;6.67;;;3.17;;
72037;SDS011;59900;50.788;12.904;2022-12-07T04:59:00;8.30;;;3.35;;
72037;SDS011;59900;50.788;12.904;2022-12-07T05:01:25;6.90;;;2.93;;
72037;SDS011;59900;50.788;12.904;2022-12-07T05:03:51;5.90;;;2.93;;
72037;SDS011;59900;50.788;12.904;2022-12-07T05:06:16;7.00;;;2.63;;
72037;SDS011;59900;50.788;12.904;2022-12-07T05:08:42;7.03;;;2.83;;
72037;SDS011;59900;50.788;12.904;2022-12-07T05:11:08;7.72;;;3.47;;
72037;SDS011;59900;50.788;12.904;2022-12-07T05:13:34;7.20;;;3.60;;
72037;SDS011;59900;50.788;12.904;2022-12-07T05:16:00;6.47;;;3.55;;
72037;SDS011;59900;50.788;12.904;2022-12-07T05:18:25;6.90;;;3.60;;
72037;SDS011;59900;50.788;12.904;2022-12-07T05:20:51;5.60;;;2.80;;
72037;SDS011;59900;50.788;12.904;2022-12-07T05:23:16;7.77;;;3.00;;
72037;SDS011;59900;50.788;12.904;2022-12-07T05:25:42;6.97;;;3.63;;
72037;SDS011;59900;50.788;12.904;2022-12-07T05:28:08;7.43;;;2.90;;
72037;SDS011;59900;50.788;12.904;2022-12-07T05:30:34;7.80;;;3.90;;
72037;SDS011;59900;50.788;12.904;2022-12-07T05:32:59;7.50;;;3.40;;
72037;SDS011;59900;50.788;12.904;2022-12-07T05:35:24;7.37;;;3.57;;
72037;SDS011;59900;50.788;12.904;2022-12-07T05:37:50;8.13;;;3.97;;
72037;SDS011;59900;50.788;12.904;2022-12-07T05:40:15;7.67;;;3.87;;
72037;SDS011;59900;50.788;12.904;2022-12-07T05:42:41;8.85;;;4.00;;
72037;SDS011;59900;50.788;12.904;2022-12-07T05:45:07;7.77;;;3.80;;
72037;SDS011;59900;50.788;12.904;2022-12-07T05:47:34;8.25;;;3.28;;
72037;SDS011;59900;50.788;12.904;2022-12-07T05:49:59;7.40;;;3.73;;
72037;SDS011;59900;50.788;12.904;2022-12-07T05:52:24;9.00;;;4.00;;
72037;SDS011;59900;50.788;12.904;2022-12-07T05:54:50;9.55;;;4.25;;
72037;SDS011;59900;50.788;12.904;2022-12-07T05:57:16;10.80;;;5.13;;
72037;SDS011;59900;50.788;12.904;2022-12-07T05:59:41;8.20;;;3.60;;
72037;SDS011;59900;50.788;12.904;2022-12-07T06:02:08;9.80;;;4.27;;
72037;SDS011;59900;50.788;12.904;2022-12-07T06:04:36;8.32;;;3.92;;
72037;SDS011;59900;50.788;12.904;2022-12-07T06:07:05;8.30;;;4.20;;
72037;SDS011;59900;50.788;12.904;2022-12-07T06:09:31;10.50;;;4.43;;
72037;SDS011;59900;50.788;12.904;2022-12-07T06:11:57;9.38;;;4.20;;
72037;SDS011;59900;50.788;12.904;2022-12-07T06:14:41;10.82;;;4.60;;
72037;SDS011;59900;50.788;12.904;2022-12-07T06:17:06;9.33;;;4.43;;
72037;SDS011;59900;50.788;12.904;2022-12-07T06:19:32;10.73;;;4.90;;
72037;SDS011;59900;50.788;12.904;2022-12-07T06:21:58;11.30;;;4.70;;
72037;SDS011;59900;50.788;12.904;2022-12-07T06:24:23;11.20;;;4.50;;
72037;SDS011;59900;50.788;12.904;2022-12-07T06:26:49;10.70;;;5.23;;
72037;SDS011;59900;50.788;12.904;2022-12-07T06:29:14;12.40;;;5.22;;
72037;SDS011;59900;50.788;12.904;2022-12-07T06:31:41;9.57;;;4.97;;
72037;SDS011;59900;50.788;12.904;2022-12-07T06:34:08;12.67;;;5.00;;
72037;SDS011;59900;50.788;12.904;2022-12-07T06:36:35;9.02;;;4.55;;
72037;SDS011;59900;50.788;12.904;2022-12-07T06:39:00;10.50;;;5.13;;
72037;SDS011;59900;50.788;12.904;2022-12-07T06:41:26;10.57;;;4.57;;
72037;SDS011;59900;50.788;12.904;2022-12-07T06:43:51;10.53;;;4.50;;
72037;SDS011;59900;50.788;12.904;2022-12-07T06:46:16;11.20;;;4.57;;
72037;SDS011;59900;50.788;12.904;2022-12-07T06:48:42;9.82;;;4.57;;
72037;SDS011;59900;50.788;12.904;2022-12-07T06:51:08;9.27;;;4.43;;
72037;SDS011;59900;50.788;12.904;2022-12-07T06:53:34;10.13;;;4.82;;
72037;SDS011;59900;50.788;12.904;2022-12-07T06:56:00;9.60;;;4.70;;
72037;SDS011;59900;50.788;12.904;2022-12-07T06:58:26;10.53;;;5.40;;
72037;SDS011;59900;50.788;12.904;2022-12-07T07:00:51;10.27;;;4.97;;
72037;SDS011;59900;50.788;12.904;2022-12-07T07:03:16;12.57;;;5.47;;
72037;SDS011;59900;50.788;12.904;2022-12-07T07:05:42;12.30;;;5.50;;
72037;SDS011;59900;50.788;12.904;2022-12-07T07:08:08;11.55;;;5.18;;
72037;SDS011;59900;50.788;12.904;2022-12-07T07:10:34;10.83;;;5.20;;
72037;SDS011;59900;50.788;12.904;2022-12-07T07:13:00;10.50;;;5.10;;
72037;SDS011;59900;50.788;12.904;2022-12-07T07:15:25;10.87;;;5.27;;
72037;SDS011;59900;50.788;12.904;2022-12-07T07:17:51;11.03;;;5.37;;
72037;SDS011;59900;50.788;12.904;2022-12-07T07:20:16;11.13;;;5.07;;
72037;SDS011;59900;50.788;12.904;2022-12-07T07:22:41;12.37;;;5.00;;
72037;SDS011;59900;50.788;12.904;2022-12-07T07:25:07;10.43;;;4.77;;
72037;SDS011;59900;50.788;12.904;2022-12-07T07:27:32;9.43;;;3.83;;
72037;SDS011;59900;50.788;12.904;2022-12-07T07:29:57;12.93;;;5.63;;
72037;SDS011;59900;50.788;12.904;2022-12-07T07:32:22;10.70;;;5.17;;
72037;SDS011;59900;50.788;12.904;2022-12-07T07:34:48;12.00;;;5.43;;
72037;SDS011;59900;50.788;12.904;2022-12-07T07:37:14;11.30;;;5.23;;
72037;SDS011;59900;50.788;12.904;2022-12-07T07:39:39;12.15;;;4.55;;
72037;SDS011;59900;50.788;12.904;2022-12-07T07:42:04;11.00;;;5.10;;
72037;SDS011;59900;50.788;12.904;2022-12-07T07:44:30;12.13;;;5.10;;
72037;SDS011;59900;50.788;12.904;2022-12-07T07:46:56;10.77;;;5.00;;
72037;SDS011;59900;50.788;12.904;2022-12-07T07:49:21;14.10;;;5.47;;
72037;SDS011;59900;50.788;12.904;2022-12-07T07:51:46;9.80;;;5.20;;
72037;SDS011;59900;50.788;12.904;2022-12-07T07:54:11;11.37;;;4.87;;
72037;SDS011;59900;50.788;12.904;2022-12-07T07:56:37;10.43;;;5.50;;
72037;SDS011;59900;50.788;12.904;2022-12-07T07:59:02;9.73;;;4.30;;
72037;SDS011;59900;50.788;12.904;2022-12-07T08:01:27;11.70;;;5.03;;
72037;SDS011;59900;50.788;12.904;2022-12-07T08:03:52;10.40;;;5.37;;
72037;SDS011;59900;50.788;12.904;2022-12-07T08:06:18;13.83;;;6.00;;
72037;SDS011;59900;50.788;12.904;2022-12-07T08:08:43;8.93;;;4.10;;
72037;SDS011;59900;50.788;12.904;2022-12-07T08:11:08;11.63;;;5.17;;
72037;SDS011;59900;50.788;12.904;2022-12-07T08:13:35;8.55;;;3.80;;
72037;SDS011;59900;50.788;12.904;2022-12-07T08:16:07;9.02;;;4.28;;
72037;SDS011;59900;50.788;12.904;2022-12-07T08:18:35;10.52;;;4.63;;
72037;SDS011;59900;50.788;12.904;2022-12-07T08:21:02;11.27;;;5.03;;
72037;SDS011;59900;50.788;12.904;2022-12-07T08:23:28;8.77;;;4.17;;
72037;SDS011;59900;50.788;12.904;2022-12-07T08:25:53;10.25;;;4.53;;
72037;SDS011;59900;50.788;12.904;2022-12-07T08:28:18;13.87;;;5.27;;
72037;SDS011;59900;50.788;12.904;2022-12-07T08:30:44;10.47;;;4.23;;
72037;SDS011;59900;50.788;12.904;2022-12-07T08:33:09;9.33;;;4.80;;
72037;SDS011;59900;50.788;12.904;2022-12-07T08:35:35;9.95;;;4.32;;
72037;SDS011;59900;50.788;12.904;2022-12-07T08:38:01;11.33;;;4.43;;
72037;SDS011;59900;50.788;12.904;2022-12-07T08:40:27;9.35;;;4.60;;
72037;SDS011;59900;50.788;12.904;2022-12-07T08:42:53;10.70;;;4.82;;
72037;SDS011;59900;50.788;12.904;2022-12-07T08:45:18;11.23;;;4.50;;
72037;SDS011;59900;50.788;12.904;2022-12-07T08:47:49;9.77;;;5.05;;
72037;SDS011;59900;50.788;12.904;2022-12-07T08:50:18;11.90;;;4.40;;
72037;SDS011;59900;50.788;12.904;2022-12-07T08:52:44;11.82;;;4.50;;
72037;SDS011;59900;50.788;12.904;2022-12-07T08:55:15;10.68;;;4.25;;
72037;SDS011;59900;50.788;12.904;2022-12-07T08:57:40;14.03;;;4.50;;
72037;SDS011;59900;50.788;12.904;2022-12-07T09:00:06;8.53;;;4.30;;
72037;SDS011;59900;50.788;12.904;2022-12-07T09:02:32;11.98;;;5.40;;
72037;SDS011;59900;50.788;12.904;2022-12-07T09:04:57;9.10;;;4.27;;
72037;SDS011;59900;50.788;12.904;2022-12-07T09:07:23;9.60;;;4.03;;
72037;SDS011;59900;50.788;12.904;2022-12-07T09:09:49;10.98;;;4.90;;
72037;SDS011;59900;50.788;12.904;2022-12-07T09:12:15;9.80;;;5.07;;
72037;SDS011;59900;50.788;12.904;2022-12-07T09:14:40;11.80;;;5.00;;
72037;SDS011;59900;50.788;12.904;2022-12-07T09:17:09;11.17;;;5.03;;
72037;SDS011;59900;50.788;12.904;2022-12-07T09:19:35;8.52;;;3.85;;
72037;SDS011;59900;50.788;12.904;2022-12-07T09:22:01;10.03;;;5.13;;
72037;SDS011;59900;50.788;12.904;2022-12-07T09:24:26;10.67;;;4.37;;
72037;SDS011;59900;50.788;12.904;2022-12-07T09:26:52;10.15;;;4.25;;
72037;SDS011;59900;50.788;12.904;2022-12-07T09:29:17;8.67;;;4.43;;
72037;SDS011;59900;50.788;12.904;2022-12-07T09:31:43;10.53;;;3.77;;
72037;SDS011;59900;50.788;12.904;2022-12-07T09:34:08;9.87;;;4.27;;
72037;SDS011;59900;50.788;12.904;2022-12-07T09:36:33;11.87;;;4.73;;
72037;SDS011;59900;50.788;12.904;2022-12-07T09:38:59;9.70;;;4.70;;
72037;SDS011;59900;50.788;12.904;2022-12-07T09:41:25;11.73;;;4.77;;
72037;SDS011;59900;50.788;12.904;2022-12-07T09:43:52;8.77;;;3.95;;
72037;SDS011;59900;50.788;12.904;2022-12-07T09:46:28;9.20;;;3.43;;
72037;SDS011;59900;50.788;12.904;2022-12-07T09:48:59;9.93;;;3.92;;
72037;SDS011;59900;50.788;12.904;2022-12-07T09:51:24;9.67;;;4.93;;
72037;SDS011;59900;50.788;12.904;2022-12-07T09:53:51;11.67;;;4.83;;
72037;SDS011;59900;50.788;12.904;2022-12-07T09:56:18;9.77;;;4.22;;
72037;SDS011;59900;50.788;12.904;2022-12-07T09:58:45;10.07;;;4.65;;
72037;SDS011;59900;50.788;12.904;2022-12-07T10:01:18;9.43;;;4.47;;
72037;SDS011;59900;50.788;12.904;2022-12-07T10:03:49;9.57;;;4.18;;
72037;SDS011;59900;50.788;12.904;2022-12-07T10:06:17;9.17;;;4.13;;
72037;SDS011;59900;50.788;12.904;2022-12-07T10:08:42;8.93;;;3.75;;
72037;SDS011;59900;50.788;12.904;2022-12-07T10:11:08;10.50;;;4.30;;
72037;SDS011;59900;50.788;12.904;2022-12-07T10:13:36;12.30;;;4.30;;
72037;SDS011;59900;50.788;12.904;2022-12-07T10:16:04;13.27;;;4.70;;
72037;SDS011;59900;50.788;12.904;2022-12-07T10:18:31;11.07;;;3.90;;
72037;SDS011;59900;50.788;12.904;2022-12-07T10:23:59;13.50;;;4.20;;
72037;SDS011;59900;50.788;12.904;2022-12-07T10:26:55;10.38;;;3.72;;
72037;SDS011;59900;50.788;12.904;2022-12-07T10:34:30;9.27;;;4.15;;
72037;SDS011;59900;50.788;12.904;2022-12-07T10:39:46;9.25;;;4.28;;
72037;SDS011;59900;50.788;12.904;2022-12-07T10:42:19;9.93;;;3.70;;
72037;SDS011;59900;50.788;12.904;2022-12-07T10:44:48;7.22;;;3.40;;
72037;SDS011;59900;50.788;12.904;2022-12-07T10:53:11;8.32;;;3.55;;
72037;SDS011;59900;50.788;12.904;2022-12-07T10:58:50;8.70;;;3.60;;
72037;SDS011;59900;50.788;12.904;2022-12-07T11:15:17;7.00;;;3.40;;
72037;SDS011;59900;50.788;12.904;2022-12-07T11:29:16;7.75;;;3.05;;
72037;SDS011;59900;50.788;12.904;2022-12-07T11:34:54;6.93;;;2.90;;
72037;SDS011;59900;50.788;12.904;2022-12-07T11:37:32;7.70;;;3.53;;
72037;SDS011;59900;50.788;12.904;2022-12-07T11:40:03;7.22;;;3.33;;
72037;SDS011;59900;50.788;12.904;2022-12-07T11:42:55;6.40;;;2.80;;
72037;SDS011;59900;50.788;12.904;2022-12-07T11:45:33;7.63;;;2.90;;
72037;SDS011;59900;50.788;12.904;2022-12-07T11:51:09;8.25;;;2.92;;
72037;SDS011;59900;50.788;12.904;2022-12-07T11:53:42;7.40;;;2.47;;
72037;SDS011;59900;50.788;12.904;2022-12-07T11:56:13;7.03;;;2.70;;
72037;SDS011;59900;50.788;12.904;2022-12-07T12:04:01;6.57;;;3.00;;
72037;SDS011;59900;50.788;12.904;2022-12-07T12:06:32;8.10;;;2.70;;
72037;SDS011;59900;50.788;12.904;2022-12-07T12:09:16;5.28;;;2.03;;
72037;SDS011;59900;50.788;12.904;2022-12-07T12:11:48;5.60;;;2.37;;
72037;SDS011;59900;50.788;12.904;2022-12-07T12:20:13;7.40;;;2.22;;
72037;SDS011;59900;50.788;12.904;2022-12-07T12:25:49;8.10;;;2.43;;
72037;SDS011;59900;50.788;12.904;2022-12-07T12:31:08;6.45;;;2.20;;
72037;SDS011;59900;50.788;12.904;2022-12-07T12:33:34;4.75;;;1.95;;
72037;SDS011;59900;50.788;12.904;2022-12-07T12:36:18;4.82;;;1.65;;
72037;SDS011;59900;50.788;12.904;2022-12-07T12:44:01;5.67;;;2.47;;
72037;SDS011;59900;50.788;12.904;2022-12-07T12:51:41;4.90;;;1.92;;
72037;SDS011;59900;50.788;12.904;2022-12-07T12:54:13;4.95;;;1.60;;
72037;SDS011;59900;50.788;12.904;2022-12-07T12:56:51;6.83;;;1.77;;
72037;SDS011;59900;50.788;12.904;2022-12-07T12:59:28;4.22;;;1.90;;
72037;SDS011;59900;50.788;12.904;2022-12-07T13:02:09;4.97;;;2.17;;
72037;SDS011;59900;50.788;12.904;2022-12-07T13:05:00;4.57;;;1.83;;
72037;SDS011;59900;50.788;12.904;2022-12-07T13:13:31;3.85;;;1.75;;
72037;SDS011;59900;50.788;12.904;2022-12-07T13:26:17;6.15;;;2.38;;
72037;SDS011;59900;50.788;12.904;2022-12-07T13:31:25;5.25;;;1.80;;
72037;SDS011;59900;50.788;12.904;2022-12-07T13:34:02;3.22;;;1.50;;
72037;SDS011;59900;50.788;12.904;2022-12-07T13:36:30;7.77;;;2.20;;
72037;SDS011;59900;50.788;12.904;2022-12-07T13:39:10;5.47;;;1.92;;
72037;SDS011;59900;50.788;12.904;2022-12-07T13:41:42;6.78;;;2.50;;
72037;SDS011;59900;50.788;12.904;2022-12-07T13:44:12;5.13;;;2.08;;
72037;SDS011;59900;50.788;12.904;2022-12-07T13:46:44;4.80;;;2.00;;
72037;SDS011;59900;50.788;12.904;2022-12-07T13:49:23;4.28;;;2.03;;
72037;SDS011;59900;50.788;12.904;2022-12-07T13:51:50;3.85;;;2.00;;
72037;SDS011;59900;50.788;12.904;2022-12-07T13:54:17;5.82;;;1.92;;
72037;SDS011;59900;50.788;12.904;2022-12-07T13:56:42;5.63;;;1.87;;
72037;SDS011;59900;50.788;12.904;2022-12-07T13:59:41;5.97;;;2.10;;
72037;SDS011;59900;50.788;12.904;2022-12-07T14:02:02;4.97;;;1.70;;
72037;SDS011;59900;50.788;12.904;2022-12-07T14:04:32;9.07;;;2.23;;
72037;SDS011;59900;50.788;12.904;2022-12-07T14:06:59;7.55;;;2.00;;
72037;SDS011;59900;50.788;12.904;2022-12-07T14:09:27;4.93;;;1.80;;
72037;SDS011;59900;50.788;12.904;2022-12-07T14:11:54;4.15;;;1.92;;
72037;SDS011;59900;50.788;12.904;2022-12-07T14:14:28;4.93;;;1.80;;
72037;SDS011;59900;50.788;12.904;2022-12-07T14:16:57;4.45;;;1.90;;
72037;SDS011;59900;50.788;12.904;2022-12-07T14:19:40;11.40;;;1.73;;
72037;SDS011;59900;50.788;12.904;2022-12-07T14:22:27;3.47;;;1.50;;
72037;SDS011;59900;50.788;12.904;2022-12-07T14:25:14;4.50;;;1.60;;
72037;SDS011;59900;50.788;12.904;2022-12-07T14:30:16;3.70;;;1.63;;
72037;SDS011;59900;50.788;12.904;2022-12-07T14:32:43;4.95;;;2.10;;
72037;SDS011;59900;50.788;12.904;2022-12-07T14:35:13;8.33;;;2.00;;
72037;SDS011;59900;50.788;12.904;2022-12-07T14:37:41;3.13;;;1.20;;
72037;SDS011;59900;50.788;12.904;2022-12-07T14:40:12;3.42;;;1.50;;
72037;SDS011;59900;50.788;12.904;2022-12-07T14:42:39;4.60;;;1.90;;
72037;SDS011;59900;50.788;12.904;2022-12-07T14:45:11;3.75;;;1.83;;
72037;SDS011;59900;50.788;12.904;2022-12-07T14:47:39;6.10;;;1.73;;
72037;SDS011;59900;50.788;12.904;2022-12-07T14:50:04;4.23;;;1.67;;
72037;SDS011;59900;50.788;12.904;2022-12-07T14:52:30;3.90;;;1.53;;
72037;SDS011;59900;50.788;12.904;2022-12-07T14:54:56;4.23;;;1.83;;
72037;SDS011;59900;50.788;12.904;2022-12-07T14:57:21;5.53;;;2.13;;
72037;SDS011;59900;50.788;12.904;2022-12-07T14:59:48;4.17;;;1.80;;
72037;SDS011;59900;50.788;12.904;2022-12-07T15:02:14;3.30;;;1.45;;
72037;SDS011;59900;50.788;12.904;2022-12-07T15:04:40;5.00;;;2.10;;
72037;SDS011;59900;50.788;12.904;2022-12-07T15:07:09;4.35;;;1.92;;
72037;SDS011;59900;50.788;12.904;2022-12-07T15:09:39;4.25;;;2.17;;
72037;SDS011;59900;50.788;12.904;2022-12-07T15:12:05;5.30;;;1.70;;
72037;SDS011;59900;50.788;12.904;2022-12-07T15:14:30;4.10;;;1.90;;
72037;SDS011;59900;50.788;12.904;2022-12-07T15:16:55;4.73;;;1.87;;
72037;SDS011;59900;50.788;12.904;2022-12-07T15:19:21;4.50;;;1.93;;
72037;SDS011;59900;50.788;12.904;2022-12-07T15:21:50;4.23;;;1.63;;
72037;SDS011;59900;50.788;12.904;2022-12-07T15:24:16;5.55;;;1.50;;
72037;SDS011;59900;50.788;12.904;2022-12-07T15:26:41;4.37;;;1.97;;
72037;SDS011;59900;50.788;12.904;2022-12-07T15:29:07;3.70;;;1.73;;
72037;SDS011;59900;50.788;12.904;2022-12-07T15:31:33;7.75;;;1.92;;
72037;SDS011;59900;50.788;12.904;2022-12-07T15:33:58;5.37;;;1.97;;
72037;SDS011;59900;50.788;12.904;2022-12-07T15:36:25;4.67;;;1.67;;
72037;SDS011;59900;50.788;12.904;2022-12-07T15:38:51;7.60;;;4.00;;
72037;SDS011;59900;50.788;12.904;2022-12-07T15:41:17;3.40;;;1.60;;
72037;SDS011;59900;50.788;12.904;2022-12-07T15:43:43;4.10;;;1.52;;
72037;SDS011;59900;50.788;12.904;2022-12-07T15:46:34;3.92;;;1.88;;
72037;SDS011;59900;50.788;12.904;2022-12-07T15:49:01;3.58;;;1.50;;
72037;SDS011;59900;50.788;12.904;2022-12-07T15:51:26;3.50;;;1.80;;
72037;SDS011;59900;50.788;12.904;2022-12-07T15:53:52;4.13;;;2.07;;
72037;SDS011;59900;50.788;12.904;2022-12-07T15:56:18;5.45;;;2.15;;
72037;SDS011;59900;50.788;12.904;2022-12-07T15:58:44;4.27;;;1.93;;
72037;SDS011;59900;50.788;12.904;2022-12-07T16:01:13;3.47;;;1.83;;
72037;SDS011;59900;50.788;12.904;2022-12-07T16:03:39;3.53;;;1.73;;
72037;SDS011;59900;50.788;12.904;2022-12-07T16:06:05;4.30;;;2.03;;
72037;SDS011;59900;50.788;12.904;2022-12-07T16:08:31;6.50;;;1.83;;
72037;SDS011;59900;50.788;12.904;2022-12-07T16:10:57;4.28;;;1.92;;
72037;SDS011;59900;50.788;12.904;2022-12-07T16:13:22;5.73;;;2.30;;
72037;SDS011;59900;50.788;12.904;2022-12-07T16:15:47;5.17;;;2.20;;
72037;SDS011;59900;50.788;12.904;2022-12-07T16:18:12;4.47;;;1.63;;
72037;SDS011;59900;50.788;12.904;2022-12-07T16:20:38;4.17;;;1.77;;
72037;SDS011;59900;50.788;12.904;2022-12-07T16:23:03;4.30;;;2.08;;
72037;SDS011;59900;50.788;12.904;2022-12-07T16:25:29;3.73;;;1.57;;
72037;SDS011;59900;50.788;12.904;2022-12-07T16:27:54;6.03;;;1.63;;
72037;SDS011;59900;50.788;12.904;2022-12-07T16:30:19;3.60;;;2.13;;
72037;SDS011;59900;50.788;12.904;2022-12-07T16:32:45;4.20;;;2.20;;
72037;SDS011;59900;50.788;12.904;2022-12-07T16:35:11;5.55;;;2.25;;
72037;SDS011;59900;50.788;12.904;2022-12-07T16:37:36;4.37;;;1.80;;
72037;SDS011;59900;50.788;12.904;2022-12-07T16:40:02;4.18;;;1.80;;